Time;durP1;ratioP1;P1;durP2;ratioP2;P2;SDS_P1;SDS_P2;PMS_P1;PMS_P2;Temp;Humidity;BMP_temperature;BMP_pressure;BME280_temperature;BME280_humidity;BME280_pressure;Samples;Min_cycle;Max_cycle;Signal;HPM_P1;HPM_P2
2023/02/25 00:02:24;;;;;;;15.65;1.83;;;;;;;4.48;88.46;100959.66;5003557;28;20128;-73
2023/02/25 00:04:50;;;;;;;12.20;1.25;;;;;;;4.47;88.41;100962.25;4999566;28;20030;-73
2023/02/25 00:07:15;;;;;;;13.05;2.05;;;;;;;4.47;87.64;100959.66;5001737;28;20109;-73
2023/02/25 00:09:40;;;;;;;11.93;1.92;;;;;;;4.47;86.82;100952.72;5004177;28;20137;-73
2023/02/25 00:12:06;;;;;;;10.45;1.92;;;;;;;4.47;87.20;100951.88;5003158;28;20041;-73
2023/02/25 00:14:31;;;;;;;7.65;1.83;;;;;;;4.48;87.42;100959.66;5002400;28;20033;-73
2023/02/25 00:16:57;;;;;;;11.43;1.90;;;;;;;4.49;87.32;100960.50;5000808;28;20038;-73
2023/02/25 00:19:24;;;;;;;7.93;1.77;;;;;;;4.51;87.67;100948.38;4999357;28;20049;-73
2023/02/25 00:21:49;;;;;;;9.45;2.08;;;;;;;4.52;87.63;100950.09;4998480;28;20457;-73
2023/02/25 00:24:15;;;;;;;22.65;3.03;;;;;;;4.53;87.82;100944.00;4998775;28;20038;-73
2023/02/25 00:26:40;;;;;;;15.73;2.20;;;;;;;4.53;87.24;100951.78;5000928;28;20049;-73
2023/02/25 00:29:05;;;;;;;13.18;2.38;;;;;;;4.51;86.62;100959.63;5002199;28;20037;-73
2023/02/25 00:31:31;;;;;;;14.98;2.17;;;;;;;4.48;85.88;100951.88;5003740;28;20044;-73
2023/02/25 00:33:56;;;;;;;11.00;1.85;;;;;;;4.48;86.35;100962.25;5005708;28;20318;-73
2023/02/25 00:36:24;;;;;;;11.93;2.13;;;;;;;4.49;86.37;100953.56;4998865;28;20050;-73
2023/02/25 00:38:55;;;;;;;11.13;1.53;;;;;;;4.46;85.38;100953.63;4998604;28;20049;-73
2023/02/25 00:41:24;;;;;;;10.98;1.60;;;;;;;4.43;84.90;100957.09;4998870;28;20041;-73
2023/02/25 00:43:55;;;;;;;5.55;1.52;;;;;;;4.40;84.19;100962.34;4999203;28;20033;-73
2023/02/25 00:46:21;;;;;;;6.70;1.17;;;;;;;4.39;84.18;100963.22;5004063;28;20042;-73
2023/02/25 00:48:47;;;;;;;7.07;1.30;;;;;;;4.40;84.24;100957.16;4999067;28;20194;-73
2023/02/25 00:51:15;;;;;;;4.78;1.23;;;;;;;4.40;85.14;100953.69;5002343;28;20080;-73
2023/02/25 00:53:41;;;;;;;7.50;1.02;;;;;;;4.40;84.91;100954.56;4998552;28;20345;-73
2023/02/25 00:56:09;;;;;;;5.55;1.45;;;;;;;4.39;85.11;100955.44;4992076;28;20034;-73
2023/02/25 00:58:36;;;;;;;5.68;1.42;;;;;;;4.36;84.00;100957.22;4998134;28;20105;-73
2023/02/25 01:01:02;;;;;;;11.23;1.77;;;;;;;4.35;84.54;100953.78;5001811;28;20034;-73
2023/02/25 01:03:28;;;;;;;13.95;1.58;;;;;;;4.33;84.59;100957.25;4999511;28;20046;-73
2023/02/25 01:05:53;;;;;;;10.65;1.65;;;;;;;4.31;84.80;100954.69;4999107;28;20069;-73
2023/02/25 01:08:19;;;;;;;8.07;1.52;;;;;;;4.30;84.79;100965.94;5001848;28;20038;-73
2023/02/25 01:10:45;;;;;;;11.45;1.85;;;;;;;4.27;84.03;100963.38;4997628;28;20246;-73
2023/02/25 01:13:12;;;;;;;14.98;1.85;;;;;;;4.28;84.55;100967.69;5003562;28;20054;-73
2023/02/25 01:15:37;;;;;;;13.32;1.63;;;;;;;4.28;84.88;100977.22;4997214;28;20237;-73
2023/02/25 01:18:03;;;;;;;13.38;2.08;;;;;;;4.29;84.86;100976.31;5003584;28;20049;-73
2023/02/25 01:20:28;;;;;;;13.95;2.28;;;;;;;4.29;84.79;100976.31;5001544;28;20096;-73
2023/02/25 01:22:55;;;;;;;3.10;1.05;;;;;;;4.29;85.54;100978.91;5003767;28;20204;-73
2023/02/25 01:25:20;;;;;;;10.85;2.33;;;;;;;4.25;84.98;100980.69;4997659;28;20050;-73
2023/02/25 01:27:46;;;;;;;9.02;1.23;;;;;;;4.25;85.07;100977.25;5003949;28;20364;-73
2023/02/25 01:30:11;;;;;;;10.73;1.48;;;;;;;4.24;85.22;100963.44;4998142;28;20077;-73
2023/02/25 01:32:37;;;;;;;6.22;1.45;;;;;;;4.25;85.46;100972.06;4998830;28;20042;-73
2023/02/25 01:35:03;;;;;;;25.08;2.33;;;;;;;4.26;85.79;100977.22;5003897;28;20049;-73
2023/02/25 01:37:28;;;;;;;12.63;1.65;;;;;;;4.25;85.37;100970.31;5002423;28;20289;-73
2023/02/25 01:39:54;;;;;;;8.68;2.00;;;;;;;4.26;85.19;100972.03;4998107;28;20053;-73
2023/02/25 01:42:19;;;;;;;10.38;1.83;;;;;;;4.26;84.45;100968.56;5002482;28;20148;-73
2023/02/25 01:45:20;;;;;;;6.45;1.85;;;;;;;4.28;84.99;100967.69;4997700;28;20061;-73
2023/02/25 01:48:12;;;;;;;4.90;1.23;;;;;;;4.28;84.69;100972.88;5003709;28;20046;-73
2023/02/25 01:50:44;;;;;;;14.93;2.58;;;;;;;4.28;84.93;100975.47;4997639;28;20036;-73
2023/02/25 01:53:11;;;;;;;9.38;1.48;;;;;;;4.30;85.30;100973.72;5003326;28;20349;-73
2023/02/25 01:55:39;;;;;;;5.95;1.30;;;;;;;4.32;85.81;100966.75;4996740;28;20250;-73
2023/02/25 01:58:04;;;;;;;7.22;1.35;;;;;;;4.31;85.87;100962.47;5003741;28;20030;-73
2023/02/25 02:00:31;;;;;;;16.17;2.42;;;;;;;4.34;86.32;100967.59;4996449;28;20042;-73
2023/02/25 02:02:58;;;;;;;20.45;3.13;;;;;;;4.34;85.99;100964.16;4997660;28;20099;-73
2023/02/25 02:05:30;;;;;;;12.95;2.30;;;;;;;4.33;86.01;100958.13;4997026;28;20072;-73
2023/02/25 02:07:56;;;;;;;15.18;2.15;;;;;;;4.33;86.03;100955.53;5000302;28;20349;-73
2023/02/25 02:10:21;;;;;;;17.73;2.95;;;;;;;4.34;86.03;100977.97;4996994;28;20174;-73
2023/02/25 02:12:47;;;;;;;20.00;2.75;;;;;;;4.35;85.83;100987.47;5005581;28;20049;-73
2023/02/25 02:15:14;;;;;;;11.55;1.98;;;;;;;4.33;85.81;100981.47;4997356;28;20034;-73
2023/02/25 02:17:50;;;;;;;7.47;1.30;;;;;;;4.31;85.92;100982.34;5002320;28;20048;-73
2023/02/25 02:20:53;;;;;;;8.90;1.77;;;;;;;4.27;86.03;100968.56;4998018;28;20030;-73
2023/02/25 02:23:56;;;;;;;8.00;1.60;;;;;;;4.24;86.66;100973.81;4964458;28;20394;-73
2023/02/25 02:26:49;;;;;;;5.38;1.25;;;;;;;4.25;86.95;100967.72;4996067;28;20069;-73
2023/02/25 02:29:34;;;;;;;6.85;1.40;;;;;;;4.25;87.16;100966.88;5005671;28;20034;-73
2023/02/25 02:32:26;;;;;;;3.90;1.00;;;;;;;4.25;87.19;100972.91;5001350;28;20109;-73
2023/02/25 02:35:22;;;;;;;5.45;1.05;;;;;;;4.26;87.37;100968.56;4995863;28;20062;-73
2023/02/25 02:38:11;;;;;;;8.32;1.90;;;;;;;4.25;86.78;100967.72;4998835;28;20049;-73
2023/02/25 02:40:45;;;;;;;;;;;;;;;4.25;86.78;100972.06;5001039;28;20042;-73
2023/02/25 02:43:21;;;;;;;12.07;1.73;;;;;;;4.22;85.96;100971.22;5001833;28;19918;-73
2023/02/25 02:46:09;;;;;;;9.77;1.60;;;;;;;4.22;85.81;100970.34;5001727;28;20096;-73
2023/02/25 02:48:58;;;;;;;8.07;1.23;;;;;;;4.23;86.09;100978.09;5006492;28;20321;-73
2023/02/25 02:52:01;;;;;;;9.40;1.33;;;;;;;4.23;86.20;100970.31;5000931;28;20034;-73
2023/02/25 02:54:31;;;;;;;2.45;1.05;;;;;;;4.23;86.56;100967.72;5000652;28;20073;-73
2023/02/25 02:57:00;;;;;;;9.38;1.48;;;;;;;4.26;86.74;100974.63;5007327;28;20059;-73
2023/02/25 02:59:41;;;;;;;6.38;1.42;;;;;;;4.28;87.21;100979.81;5004603;28;20081;-73
2023/02/25 03:02:16;;;;;;;10.70;1.33;;;;;;;4.28;87.04;100982.41;5003037;28;20041;-73
2023/02/25 03:04:45;;;;;;;12.80;1.75;;;;;;;4.28;87.13;100980.66;4987871;28;20046;-73
2023/02/25 03:07:13;;;;;;;9.15;1.65;;;;;;;4.29;87.50;100989.28;5001205;28;20097;-73
2023/02/25 03:09:42;;;;;;;11.52;2.35;;;;;;;4.29;86.27;100973.72;4999997;28;20046;-73
2023/02/25 03:12:07;;;;;;;15.05;2.40;;;;;;;4.26;85.97;100977.22;5001005;28;20062;-73
2023/02/25 03:14:34;;;;;;;12.70;1.63;;;;;;;4.25;85.77;100996.25;5008055;28;20041;-73
2023/02/25 03:17:03;;;;;;;12.93;1.70;;;;;;;4.26;85.36;100999.69;5002685;28;20046;-74
2023/02/25 03:19:38;;;;;;;;;;;;;;;4.24;85.34;100999.72;4999711;28;20030;-74
2023/02/25 03:22:09;;;;;;;9.73;2.17;;;;;;;4.21;85.13;100987.63;5002650;28;20116;-74
2023/02/25 03:24:42;;;;;;;8.18;1.52;;;;;;;4.20;85.39;100988.53;5000352;28;20065;-74
2023/02/25 03:27:27;;;;;;;6.63;1.33;;;;;;;4.19;85.38;101004.09;5002767;28;20398;-74
2023/02/25 03:30:01;;;;;;;14.40;1.80;;;;;;;4.16;84.16;101011.91;5002864;28;20042;-74
2023/02/25 03:32:28;;;;;;;7.88;2.08;;;;;;;4.11;84.29;101001.59;5000103;28;20219;-74
2023/02/25 03:34:56;;;;;;;13.30;1.70;;;;;;;4.09;85.51;101007.66;5002661;28;20053;-74
2023/02/25 03:37:30;;;;;;;4.22;1.33;;;;;;;4.03;86.48;100987.84;5000132;28;20200;-74
2023/02/25 03:39:59;;;;;;;11.07;1.80;;;;;;;4.00;86.60;100987.88;5001383;28;20038;-74
2023/02/25 03:42:32;;;;;;;7.60;1.55;;;;;;;3.99;86.61;100981.84;4999774;28;20042;-74
2023/02/25 03:45:01;;;;;;;14.93;2.42;;;;;;;3.98;86.27;100987.03;5000863;28;20325;-74
2023/02/25 03:47:30;;;;;;;8.38;1.35;;;;;;;3.97;85.47;100978.41;5000149;28;20081;-74
2023/02/25 03:50:22;;;;;;;8.48;1.67;;;;;;;3.99;86.03;100984.44;5000389;28;20030;-74
2023/02/25 03:52:48;;;;;;;4.78;1.65;;;;;;;4.00;85.95;100980.09;5000104;28;20109;-74
2023/02/25 03:55:16;;;;;;;8.18;1.70;;;;;;;3.99;85.42;100984.44;5001444;28;20049;-74
2023/02/25 03:57:43;;;;;;;9.20;1.77;;;;;;;4.01;85.55;100981.84;5000726;28;20124;-74
2023/02/25 04:00:17;;;;;;;11.02;1.75;;;;;;;4.02;85.81;100984.41;5002733;28;20042;-72
2023/02/25 04:02:45;;;;;;;13.57;2.20;;;;;;;4.04;85.48;100987.00;5006683;28;20038;-72
2023/02/25 04:05:11;;;;;;;11.13;1.98;;;;;;;4.04;85.62;100982.66;5000318;28;20050;-72
2023/02/25 04:07:37;;;;;;;14.07;1.85;;;;;;;4.07;85.50;100988.69;5000962;28;20110;-72
2023/02/25 04:10:04;;;;;;;10.27;1.80;;;;;;;4.08;85.87;100993.84;4991487;28;20041;-72
2023/02/25 04:12:29;;;;;;;11.15;2.15;;;;;;;4.11;86.31;100988.63;5000112;28;20214;-72
2023/02/25 04:14:55;;;;;;;12.00;1.60;;;;;;;4.12;86.04;100986.91;4999792;28;20038;-73
2023/02/25 04:17:21;;;;;;;11.10;1.67;;;;;;;4.13;86.31;100991.19;4999615;28;20388;-73
2023/02/25 04:19:46;;;;;;;9.13;0.95;;;;;;;4.15;86.71;100992.91;4999700;28;20049;-73
2023/02/25 04:22:11;;;;;;;7.70;2.10;;;;;;;4.17;86.81;100996.34;5000046;28;20025;-73
2023/02/25 04:24:37;;;;;;;7.70;1.23;;;;;;;4.18;86.77;101000.66;4999578;28;20038;-73
2023/02/25 04:27:02;;;;;;;8.52;1.77;;;;;;;4.15;84.64;101016.25;5000078;28;20042;-73
2023/02/25 04:29:28;;;;;;;7.60;1.58;;;;;;;4.14;84.11;101021.44;5001564;28;20033;-73
2023/02/25 04:31:54;;;;;;;11.80;1.77;;;;;;;4.14;83.99;101016.25;4999519;28;20338;-73
2023/02/25 04:34:19;;;;;;;4.13;1.10;;;;;;;4.14;84.11;101013.66;5000828;28;20076;-73
2023/02/25 04:36:45;;;;;;;6.65;1.33;;;;;;;4.11;83.50;101011.97;4998878;28;20073;-73
2023/02/25 04:39:12;;;;;;;12.68;1.55;;;;;;;4.10;83.25;101025.78;5001343;28;20042;-73
2023/02/25 04:41:38;;;;;;;10.75;1.65;;;;;;;4.10;83.04;101050.88;4998468;28;20093;-72
2023/02/25 04:44:04;;;;;;;9.75;1.50;;;;;;;4.04;83.07;101044.00;5001367;28;20047;-72
2023/02/25 04:46:31;;;;;;;5.35;1.30;;;;;;;4.01;83.48;101044.88;4998846;28;20042;-72
2023/02/25 04:48:57;;;;;;;3.90;1.02;;;;;;;4.00;84.35;101035.41;5000520;28;20080;-72
2023/02/25 04:51:22;;;;;;;8.50;1.17;;;;;;;3.96;84.66;101038.88;4998162;28;20054;-72
2023/02/25 04:53:48;;;;;;;4.30;0.93;;;;;;;3.95;84.29;101031.16;5000326;28;20046;-72
2023/02/25 04:56:14;;;;;;;4.95;0.98;;;;;;;3.95;84.75;101026.81;4998878;28;20333;-72
2023/02/25 04:58:39;;;;;;;5.43;0.98;;;;;;;3.95;84.34;101034.59;4999849;28;20109;-72
2023/02/25 05:01:06;;;;;;;4.93;1.08;;;;;;;3.96;84.66;101031.09;4999211;28;20050;-72
2023/02/25 05:03:32;;;;;;;2.53;0.70;;;;;;;3.96;84.51;101025.94;4999489;28;20038;-72
2023/02/25 05:05:58;;;;;;;8.00;1.10;;;;;;;3.99;85.09;101025.06;4999180;28;20034;-72
2023/02/25 05:08:24;;;;;;;5.65;1.15;;;;;;;3.98;84.75;101018.13;5000774;28;20038;-72
2023/02/25 05:10:50;;;;;;;6.03;1.20;;;;;;;3.98;84.38;101026.78;5002319;28;20038;-72
2023/02/25 05:13:16;;;;;;;10.13;1.63;;;;;;;3.99;84.88;101025.91;4999742;28;20045;-72
2023/02/25 05:15:42;;;;;;;8.15;1.33;;;;;;;4.00;84.95;101029.34;4998691;28;20052;-72
2023/02/25 05:18:08;;;;;;;8.90;1.70;;;;;;;4.03;85.40;101039.69;4999525;28;20657;-72
2023/02/25 05:20:33;;;;;;;9.70;1.65;;;;;;;4.03;85.08;101031.91;4998941;28;20230;-72
2023/02/25 05:22:59;;;;;;;6.40;1.30;;;;;;;4.04;85.28;101029.31;4998999;28;20034;-72
2023/02/25 05:25:25;;;;;;;11.15;1.25;;;;;;;4.07;85.52;101032.75;5000259;28;20322;-72
2023/02/25 05:27:50;;;;;;;6.18;1.40;;;;;;;4.07;85.07;101037.94;4998744;28;20042;-72
2023/02/25 05:30:15;;;;;;;11.00;1.67;;;;;;;4.08;84.63;101032.72;5001125;28;20257;-72
2023/02/25 05:32:41;;;;;;;12.73;1.75;;;;;;;4.07;83.59;101028.41;4998247;28;20343;-72
2023/02/25 05:35:07;;;;;;;14.80;2.47;;;;;;;4.08;84.21;101026.69;5001527;28;20109;-72
2023/02/25 05:37:33;;;;;;;7.03;1.15;;;;;;;4.10;84.61;101032.72;4997722;28;20385;-72
2023/02/25 05:40:00;;;;;;;13.10;2.17;;;;;;;4.10;84.89;101024.94;5001623;28;20105;-72
2023/02/25 05:42:25;;;;;;;7.40;1.35;;;;;;;4.11;85.20;101022.34;4997947;28;20062;-72
2023/02/25 05:44:51;;;;;;;10.13;1.55;;;;;;;4.12;85.49;101029.22;5002158;28;20211;-72
2023/02/25 05:47:16;;;;;;;4.68;1.20;;;;;;;4.12;85.49;101026.63;4997709;28;20038;-72
2023/02/25 05:49:42;;;;;;;14.43;2.72;;;;;;;4.12;85.49;101038.75;5002315;28;20132;-72
2023/02/25 05:52:08;;;;;;;7.22;1.23;;;;;;;4.12;85.81;101047.38;4997915;28;20360;-72
2023/02/25 05:54:33;;;;;;;14.73;1.80;;;;;;;4.13;85.92;101053.41;5002393;28;20084;-72
2023/02/25 05:56:58;;;;;;;10.85;2.10;;;;;;;4.12;85.74;101057.72;5003901;28;20237;-72
2023/02/25 05:59:24;;;;;;;11.80;2.17;;;;;;;4.10;85.39;101038.75;4997429;28;20207;-72
2023/02/25 06:01:49;;;;;;;9.45;1.98;;;;;;;4.11;85.44;101044.78;4997626;28;20353;-72
2023/02/25 06:04:15;;;;;;;10.40;1.83;;;;;;;4.10;85.84;101038.75;4997916;28;20073;-72
2023/02/25 06:06:41;;;;;;;10.45;1.20;;;;;;;4.11;85.86;101050.84;4997775;28;20030;-72
2023/02/25 06:09:08;;;;;;;9.75;1.67;;;;;;;4.12;86.03;101054.28;4999137;28;20369;-72
2023/02/25 06:11:34;;;;;;;14.63;2.38;;;;;;;4.11;86.05;101044.78;4997204;28;20041;-72
2023/02/25 06:13:59;;;;;;;9.75;1.40;;;;;;;4.10;85.92;101048.28;4999018;28;20042;-72
2023/02/25 06:16:30;;;;;;;13.30;2.15;;;;;;;4.09;85.38;101051.72;4997605;28;20038;-72
2023/02/25 06:18:57;;;;;;;11.45;1.42;;;;;;;4.07;84.92;101038.78;4998565;28;20049;-72
2023/02/25 06:21:22;;;;;;;6.85;1.63;;;;;;;4.07;85.43;101048.28;5001552;28;20117;-72
2023/02/25 06:23:49;;;;;;;5.93;1.15;;;;;;;4.06;85.40;101052.63;4997839;28;20050;-72
2023/02/25 06:26:14;;;;;;;7.97;1.40;;;;;;;4.06;85.78;101055.22;5003446;28;20038;-72
2023/02/25 06:28:41;;;;;;;4.18;1.02;;;;;;;4.06;86.01;101056.94;4997366;28;20129;-72
2023/02/25 06:31:12;;;;;;;13.75;1.48;;;;;;;4.04;85.77;101055.22;5006495;28;20389;-72
2023/02/25 06:33:39;;;;;;;6.85;1.27;;;;;;;4.02;85.69;101062.16;5001490;28;20034;-72
2023/02/25 06:36:05;;;;;;;7.03;1.35;;;;;;;4.04;86.02;101065.59;5003938;28;20074;-72
2023/02/25 06:38:31;;;;;;;4.13;1.20;;;;;;;4.03;86.24;101056.09;4997071;28;20385;-72
2023/02/25 06:40:57;;;;;;;12.55;1.90;;;;;;;4.00;84.97;101061.31;5003348;28;20042;-72
2023/02/25 06:43:22;;;;;;;11.98;1.92;;;;;;;3.97;85.01;101056.16;4996785;28;20304;-72
2023/02/25 06:45:47;;;;;;;7.10;1.88;;;;;;;3.96;84.81;101064.78;5005445;28;20073;-72
2023/02/25 06:48:13;;;;;;;11.52;1.92;;;;;;;3.96;84.48;101076.91;4997303;28;20062;-72
2023/02/25 06:50:39;;;;;;;13.57;2.63;;;;;;;3.95;84.25;101089.00;4997055;28;20057;-72
2023/02/25 06:53:06;;;;;;;12.52;1.70;;;;;;;3.95;81.90;101090.75;5005638;28;20241;-72
2023/02/25 06:55:31;;;;;;;10.25;2.45;;;;;;;3.93;82.51;101092.47;5003220;28;20025;-72
2023/02/25 06:57:57;;;;;;;8.05;1.60;;;;;;;3.91;83.45;101102.88;4997677;28;20412;-72
2023/02/25 07:00:22;;;;;;;11.40;1.58;;;;;;;3.90;84.14;101102.88;4996551;28;20057;-72
2023/02/25 07:02:48;;;;;;;5.88;1.38;;;;;;;3.89;84.68;101107.19;4998329;28;20480;-72
2023/02/25 07:05:13;;;;;;;7.82;1.40;;;;;;;3.88;85.28;101102.03;4997684;28;20562;-72
2023/02/25 07:07:39;;;;;;;14.38;1.45;;;;;;;3.88;86.21;101113.25;4997967;28;20053;-72
2023/02/25 07:10:05;;;;;;;12.02;2.00;;;;;;;3.84;87.06;101122.78;4997070;28;20068;-72
2023/02/25 07:12:31;;;;;;;10.13;1.08;;;;;;;3.86;87.52;101140.91;4998714;28;20046;-72
2023/02/25 07:14:59;;;;;;;4.85;1.10;;;;;;;3.83;88.05;101128.81;5005627;28;20273;-72
2023/02/25 07:17:24;;;;;;;9.45;1.80;;;;;;;3.79;88.67;101131.47;4999668;28;20050;-72
2023/02/25 07:19:50;;;;;;;7.55;0.98;;;;;;;3.77;88.10;101141.00;5000538;28;20130;-72
2023/02/25 07:22:17;;;;;;;10.40;1.20;;;;;;;3.75;88.04;101132.38;4997602;28;20081;-72
2023/02/25 07:24:44;;;;;;;6.40;1.00;;;;;;;3.75;88.29;101122.88;4998859;28;20022;-72
2023/02/25 07:27:11;;;;;;;9.35;1.38;;;;;;;3.74;88.37;101115.09;5002853;28;20054;-72
2023/02/25 07:29:37;;;;;;;9.13;1.52;;;;;;;3.74;88.49;101117.69;4997373;28;20069;-72
2023/02/25 07:32:02;;;;;;;6.18;1.40;;;;;;;3.76;88.73;101121.13;5000146;28;20037;-72
2023/02/25 07:34:28;;;;;;;8.05;1.08;;;;;;;3.76;88.30;101131.50;4998310;28;20042;-72
2023/02/25 07:36:53;;;;;;;9.82;1.60;;;;;;;3.77;88.46;101133.22;4999602;28;20225;-72
2023/02/25 07:39:18;;;;;;;12.02;1.67;;;;;;;3.76;88.17;101124.56;4999600;28;20053;-72
2023/02/25 07:41:44;;;;;;;3.55;1.00;;;;;;;3.78;88.31;101128.03;4999833;28;20066;-72
2023/02/25 07:44:09;;;;;;;6.10;1.10;;;;;;;3.80;88.65;101125.41;4998123;28;20046;-72
2023/02/25 07:46:35;;;;;;;12.63;1.48;;;;;;;3.83;88.65;101127.97;5002771;28;20413;-72
2023/02/25 07:49:01;;;;;;;8.25;1.48;;;;;;;3.84;88.77;101129.72;4997713;28;20030;-72
2023/02/25 07:51:26;;;;;;;5.63;1.58;;;;;;;3.85;88.81;101132.25;4997225;28;20041;-72
2023/02/25 07:53:54;;;;;;;9.02;1.40;;;;;;;3.88;89.00;101138.31;5000550;28;20045;-72
2023/02/25 07:56:22;;;;;;;6.72;1.58;;;;;;;3.90;89.32;101145.19;5001656;28;20543;-72
2023/02/25 07:58:48;;;;;;;8.73;1.27;;;;;;;3.92;88.97;101140.84;4999204;28;20037;-72
2023/02/25 08:01:22;;;;;;;6.15;1.38;;;;;;;3.94;89.27;101133.94;5000081;28;20022;-72
2023/02/25 08:03:52;;;;;;;8.77;1.48;;;;;;;3.96;89.50;101132.19;5002858;28;20042;-72
2023/02/25 08:06:17;;;;;;;;;;;;;;;3.99;89.57;101142.53;5000170;28;20045;-72
2023/02/25 08:08:43;;;;;;;21.70;2.28;;;;;;;4.02;89.11;101142.50;4999790;28;19957;-72
2023/02/25 08:11:10;;;;;;;11.35;1.85;;;;;;;4.02;88.34;101139.91;4997845;28;20097;-72
2023/02/25 08:13:36;;;;;;;15.52;2.22;;;;;;;4.04;88.12;101143.34;4996740;28;20380;-72
2023/02/25 08:16:07;;;;;;;20.80;2.67;;;;;;;4.09;87.72;101139.84;4999576;28;20033;-72
2023/02/25 08:18:32;;;;;;;15.23;2.20;;;;;;;4.12;86.96;101158.81;4996090;28;20049;-72
2023/02/25 08:20:58;;;;;;;11.73;1.85;;;;;;;4.15;86.44;101152.78;4998600;28;20261;-72
2023/02/25 08:23:24;;;;;;;18.85;2.78;;;;;;;4.18;85.64;101155.31;4997920;28;20045;-72
2023/02/25 08:25:56;;;;;;;14.38;2.13;;;;;;;4.19;84.93;101157.91;4995612;28;20050;-72
2023/02/25 08:28:25;;;;;;;17.52;2.20;;;;;;;4.22;85.00;101159.59;4998375;28;20037;-72
2023/02/25 08:30:51;;;;;;;12.40;2.92;;;;;;;4.25;84.72;101169.94;4996136;28;20037;-72
2023/02/25 08:33:16;;;;;;;12.82;2.15;;;;;;;4.27;83.91;101160.41;4998018;28;20046;-72
2023/02/25 08:35:42;;;;;;;18.63;3.00;;;;;;;4.29;84.03;101163.84;4998019;28;20038;-72
2023/02/25 08:38:08;;;;;;;21.77;2.70;;;;;;;4.31;83.95;101154.34;4997615;28;20066;-72
2023/02/25 08:40:34;;;;;;;21.65;2.65;;;;;;;4.32;83.87;101161.22;4993277;28;20057;-72
2023/02/25 08:42:59;;;;;;;14.43;2.47;;;;;;;4.34;83.53;101167.25;4997329;28;20065;-72
2023/02/25 08:45:25;;;;;;;14.05;2.35;;;;;;;4.35;83.19;101163.81;4996193;28;20045;-72
2023/02/25 08:47:50;;;;;;;17.27;2.00;;;;;;;4.39;83.00;101167.22;4998090;28;20076;-72
2023/02/25 08:50:16;;;;;;;10.90;2.15;;;;;;;4.42;83.10;101160.28;4996955;28;20057;-72
2023/02/25 08:52:42;;;;;;;13.07;2.08;;;;;;;4.46;83.65;101160.22;4997523;28;20352;-72
2023/02/25 08:55:08;;;;;;;16.58;2.25;;;;;;;4.49;83.55;101157.63;5001284;28;20109;-72
2023/02/25 08:57:33;;;;;;;14.82;2.80;;;;;;;4.53;83.54;101161.88;4997457;28;20101;-72
2023/02/25 08:59:58;;;;;;;14.13;2.25;;;;;;;4.56;83.83;101167.06;4998782;28;20049;-72
2023/02/25 09:02:24;;;;;;;18.25;2.25;;;;;;;4.58;84.08;101163.59;4998023;28;20038;-72
2023/02/25 09:04:49;;;;;;;13.48;1.70;;;;;;;4.63;83.25;101184.28;5002920;28;20434;-72
2023/02/25 09:07:15;;;;;;;18.58;2.30;;;;;;;4.65;81.30;101158.31;4998294;28;20080;-72
2023/02/25 09:09:42;;;;;;;12.88;2.40;;;;;;;4.68;81.25;101171.25;4999668;28;20046;-72
2023/02/25 09:12:08;;;;;;;22.05;2.70;;;;;;;4.69;81.01;101172.97;4998258;28;20342;-72
2023/02/25 09:14:33;;;;;;;11.32;1.80;;;;;;;4.68;80.80;101177.31;4996598;28;20033;-72
2023/02/25 09:17:01;;;;;;;17.85;2.25;;;;;;;4.69;81.01;101181.59;4998091;28;20056;-72
2023/02/25 09:19:27;;;;;;;11.02;2.05;;;;;;;4.69;81.79;101181.59;5000099;28;20049;-72
2023/02/25 09:21:52;;;;;;;12.02;2.20;;;;;;;4.69;81.96;101184.19;4998211;28;20035;-72
2023/02/25 09:24:18;;;;;;;22.23;2.92;;;;;;;4.69;81.73;101206.69;4999156;28;20397;-72
2023/02/25 09:26:43;;;;;;;16.23;2.53;;;;;;;4.68;81.51;101205.84;4997801;28;20058;-72
2023/02/25 09:29:09;;;;;;;14.40;2.33;;;;;;;4.69;82.23;101228.31;5002374;28;20108;-72
2023/02/25 09:31:36;;;;;;;15.70;2.35;;;;;;;4.68;83.87;101218.81;4997852;28;20097;-72
2023/02/25 09:34:05;;;;;;;16.15;2.90;;;;;;;4.66;84.83;101222.28;5000312;28;20080;-72
2023/02/25 09:36:31;;;;;;;;;;;;;;;4.62;85.62;101229.25;4997293;28;20046;-72
2023/02/25 09:38:57;;;;;;;18.00;1.80;;;;;;;4.54;86.73;101247.47;4999622;28;20240;-72
2023/02/25 09:41:40;;;;;;;9.00;1.77;;;;;;;4.46;87.79;101257.06;5000596;28;20034;-72
2023/02/25 09:44:15;;;;;;;15.05;1.75;;;;;;;4.36;89.06;101248.50;5000257;28;20046;-72
2023/02/25 09:47:03;;;;;;;9.98;2.00;;;;;;;4.30;89.63;101247.69;4997479;28;20030;-72
2023/02/25 09:49:35;;;;;;;8.20;1.50;;;;;;;4.27;89.86;101258.94;4998007;28;20301;-72
2023/02/25 09:52:10;;;;;;;6.72;1.42;;;;;;;4.25;90.31;101255.50;4997764;28;20041;-72
2023/02/25 09:54:45;;;;;;;8.07;1.40;;;;;;;4.26;90.55;101251.16;4999112;28;20037;-72
2023/02/25 09:57:20;;;;;;;8.30;1.40;;;;;;;4.26;90.81;101254.66;4993102;28;20037;-72
2023/02/25 09:59:46;;;;;;;3.47;1.13;;;;;;;4.30;91.24;101258.06;4997911;28;20615;-72
2023/02/25 10:02:26;;;;;;;10.30;1.58;;;;;;;4.31;91.19;101254.59;4997694;28;20508;-72
2023/02/25 10:05:43;;;;;;;11.50;2.25;;;;;;;4.34;91.53;101257.16;4997739;28;20029;-72
2023/02/25 10:08:19;;;;;;;8.65;2.22;;;;;;;4.36;91.79;101258.88;4959465;28;20778;-72
2023/02/25 10:11:01;;;;;;;12.00;2.03;;;;;;;4.38;92.09;101266.63;4996630;28;20076;-72
2023/02/25 10:13:53;;;;;;;14.00;2.22;;;;;;;4.40;92.25;101270.97;4997647;28;20041;-72
2023/02/25 10:16:59;;;;;;;12.57;2.10;;;;;;;4.42;91.85;101270.91;4997105;28;20038;-72
2023/02/25 10:19:50;;;;;;;7.47;1.73;;;;;;;4.42;91.88;101269.22;4887542;29;20040;-72
2023/02/25 10:22:21;;;;;;;14.38;2.13;;;;;;;4.45;91.89;101270.91;4886695;29;20044;-72
2023/02/25 10:25:00;;;;;;;14.20;1.77;;;;;;;4.47;91.34;101268.31;4966641;28;20096;-72
2023/02/25 10:27:32;;;;;;;;;;;;;;;4.51;90.71;101272.56;4997067;28;20025;-72
2023/02/25 10:30:12;;;;;;;14.70;1.80;;;;;;;4.55;90.32;101274.28;4997720;28;19925;-72
2023/02/25 10:32:42;;;;;;;7.97;1.23;;;;;;;4.60;90.49;101275.97;4997610;28;20105;-72
2023/02/25 10:35:25;;;;;;;10.93;1.63;;;;;;;4.66;89.70;101277.66;4995969;28;20360;-72
2023/02/25 10:37:51;;;;;;;14.15;2.08;;;;;;;4.68;88.20;101270.72;4997072;28;20368;-72
2023/02/25 10:40:19;;;;;;;7.30;1.98;;;;;;;4.71;87.58;101275.00;4998265;28;20031;-72
2023/02/25 10:42:53;;;;;;;8.93;2.00;;;;;;;4.71;87.35;101267.22;4998125;28;20066;-72
2023/02/25 10:45:39;;;;;;;6.53;1.88;;;;;;;4.71;87.48;101275.88;4992145;28;20031;-72
2023/02/25 10:48:21;;;;;;;11.18;1.30;;;;;;;4.72;86.42;101280.16;4998178;28;20128;-72
2023/02/25 10:51:10;;;;;;;11.02;1.40;;;;;;;4.72;85.73;101294.88;5001818;28;20030;-72
2023/02/25 10:53:40;;;;;;;4.95;1.58;;;;;;;4.72;83.95;101292.28;5001922;28;20034;-72
2023/02/25 10:56:07;;;;;;;4.80;1.20;;;;;;;4.72;84.10;101287.09;5000800;28;20101;-72
2023/02/25 10:58:40;;;;;;;4.07;1.02;;;;;;;4.73;84.35;101294.88;5006810;28;20348;-72
2023/02/25 11:01:05;;;;;;;3.75;0.80;;;;;;;4.72;84.56;101295.75;5001731;28;20080;-72
2023/02/25 11:03:37;;;;;;;3.45;0.75;;;;;;;4.72;84.37;101293.16;5000890;28;20069;-72
2023/02/25 11:06:12;;;;;;;5.75;1.30;;;;;;;4.71;84.64;101300.94;5001570;28;20045;-72
2023/02/25 11:08:38;;;;;;;4.28;1.02;;;;;;;4.70;84.64;101302.69;5002333;28;20029;-72
2023/02/25 11:11:14;;;;;;;3.95;0.88;;;;;;;4.70;84.33;101309.63;5001198;28;20038;-72
2023/02/25 11:13:40;;;;;;;4.72;0.77;;;;;;;4.69;84.75;101320.84;5008859;28;20084;-72
2023/02/25 11:16:09;;;;;;;1.13;0.57;;;;;;;4.68;84.65;101309.63;5000933;28;20329;-72
2023/02/25 11:18:37;;;;;;;7.43;1.00;;;;;;;4.70;84.41;101310.47;4999838;28;20128;-72
2023/02/25 11:21:06;;;;;;;6.55;0.80;;;;;;;4.74;84.69;101313.91;5000626;28;20030;-72
2023/02/25 11:23:43;;;;;;;;;;;;;;;4.77;85.14;101322.50;5000629;28;20070;-72
2023/02/25 11:26:15;;;;;;;5.35;1.10;;;;;;;4.84;83.94;101323.31;5000552;28;19924;-72
2023/02/25 11:28:47;;;;;;;2.85;1.33;;;;;;;4.88;83.26;101327.59;4999892;28;20033;-72
2023/02/25 11:31:17;;;;;;;5.07;1.15;;;;;;;4.93;83.04;101336.22;4998507;28;20258;-72
2023/02/25 11:33:49;;;;;;;2.00;0.75;;;;;;;4.98;83.50;101331.84;4999892;28;20030;-72
2023/02/25 11:36:21;;;;;;;7.35;1.10;;;;;;;5.09;82.43;101334.31;5001290;28;20061;-72
2023/02/25 11:38:48;;;;;;;2.65;0.90;;;;;;;5.15;82.05;101325.63;4999861;28;20130;-72
2023/02/25 11:41:21;;;;;;;8.38;1.20;;;;;;;5.22;81.14;101331.59;5008531;28;20240;-72
2023/02/25 11:43:47;;;;;;;5.05;1.45;;;;;;;5.24;80.44;101337.63;5000903;28;20481;-72